Time;durP1;ratioP1;P1;durP2;ratioP2;P2;SDS_P1;SDS_P2;PMS_P1;PMS_P2;Temp;Humidity;BMP_temperature;BMP_pressure;BME280_temperature;BME280_humidity;BME280_pressure;Samples;Min_cycle;Max_cycle;Signal;HPM_P1;HPM_P2
2022/10/13 00:01:11;;;;;;;0.50;0.50;;;;;;;;;;1913040;75;26209;-94
2022/10/13 00:03:40;;;;;;;0.47;0.47;;;;;;;;;;1927196;74;26303;-93
2022/10/13 00:06:09;;;;;;;0.60;0.60;;;;;;;;;;1913629;73;26322;-89
2022/10/13 00:08:36;;;;;;;0.45;0.45;;;;;;;;;;1905068;75;26274;-88
2022/10/13 00:11:05;;;;;;;0.40;0.40;;;;;;;;;;1910440;74;26255;-90
2022/10/13 00:13:32;;;;;;;0.82;0.68;;;;;;;;;;1880017;74;26266;-89
2022/10/13 00:16:01;;;;;;;0.30;0.30;;;;;;;;;;1887900;74;26289;-89
2022/10/13 00:18:28;;;;;;;1.45;0.30;;;;;;;;;;1910889;75;26313;-91
2022/10/13 00:20:55;;;;;;;0.40;0.40;;;;;;;;;;1913237;75;26215;-90
2022/10/13 00:23:23;;;;;;;0.40;0.40;;;;;;;;;;1910622;74;26290;-90
2022/10/13 00:25:50;;;;;;;0.47;0.47;;;;;;;;;;1890965;74;26842;-91
2022/10/13 00:28:19;;;;;;;0.42;0.42;;;;;;;;;;1918464;74;26276;-92
2022/10/13 00:30:46;;;;;;;0.30;0.30;;;;;;;;;;1914172;74;26295;-92
2022/10/13 00:33:14;;;;;;;0.30;0.30;;;;;;;;;;1913028;74;26333;-94
2022/10/13 00:35:42;;;;;;;0.50;0.50;;;;;;;;;;1889726;74;26285;-90
2022/10/13 00:38:10;;;;;;;0.40;0.40;;;;;;;;;;1908498;74;26360;-91
2022/10/13 00:40:45;;;;;;;0.90;0.40;;;;;;;;;;1912838;74;26325;-89
2022/10/13 00:43:16;;;;;;;0.50;0.50;;;;;;;;;;1900683;75;26345;-89
2022/10/13 00:45:44;;;;;;;0.37;0.37;;;;;;;;;;1911135;74;26298;-90
2022/10/13 00:48:12;;;;;;;0.30;0.30;;;;;;;;;;1909524;73;26651;-88
2022/10/13 00:50:41;;;;;;;0.42;0.42;;;;;;;;;;1910713;75;26370;-89
2022/10/13 00:53:09;;;;;;;0.30;0.30;;;;;;;;;;1902291;74;26348;-88
2022/10/13 00:55:38;;;;;;;0.70;0.40;;;;;;;;;;1901510;75;29135;-88
2022/10/13 00:58:06;;;;;;;0.20;0.20;;;;;;;;;;1899575;74;26314;-90
2022/10/13 01:00:34;;;;;;;0.50;0.50;;;;;;;;;;1920915;74;26331;-91
2022/10/13 01:03:02;;;;;;;0.30;0.30;;;;;;;;;;1882415;75;26793;-87
2022/10/13 01:05:30;;;;;;;1.20;0.40;;;;;;;;;;1894493;75;26281;-88
2022/10/13 01:07:59;;;;;;;0.40;0.40;;;;;;;;;;1910274;75;26280;-88
2022/10/13 01:10:27;;;;;;;0.40;0.40;;;;;;;;;;1897365;74;26284;-88
2022/10/13 01:12:59;;;;;;;0.50;0.50;;;;;;;;;;1774352;78;26243;-89
2022/10/13 01:15:28;;;;;;;0.40;0.40;;;;;;;;;;1824927;77;26321;-88
2022/10/13 01:18:00;;;;;;;0.45;0.45;;;;;;;;;;1790435;77;26798;-88
2022/10/13 01:20:34;;;;;;;0.40;0.40;;;;;;;;;;1870355;76;26389;-89
2022/10/13 01:23:11;;;;;;;0.40;0.40;;;;;;;;;;1881504;74;26252;-87
2022/10/13 01:25:46;;;;;;;0.30;0.30;;;;;;;;;;1844720;76;26314;-89
2022/10/13 01:28:30;;;;;;;0.40;0.40;;;;;;;;;;1866940;75;28148;-89
2022/10/13 01:30:58;;;;;;;0.40;0.40;;;;;;;;;;1881687;75;26281;-89
2022/10/13 01:33:36;;;;;;;0.30;0.30;;;;;;;;;;1874800;75;26243;-90
2022/10/13 01:36:05;;;;;;;0.30;0.30;;;;;;;;;;1869015;75;26292;-89
2022/10/13 01:38:49;;;;;;;0.40;0.40;;;;;;;;;;1885705;75;26256;-89
2022/10/13 01:41:18;;;;;;;0.45;0.45;;;;;;;;;;1887380;75;26302;-91
2022/10/13 01:43:49;;;;;;;0.33;0.33;;;;;;;;;;1880349;75;26261;-89
2022/10/13 01:46:21;;;;;;;0.40;0.40;;;;;;;;;;1888479;75;26731;-89
2022/10/13 01:48:49;;;;;;;0.33;0.33;;;;;;;;;;1891314;74;26322;-88
2022/10/13 01:51:18;;;;;;;0.40;0.40;;;;;;;;;;1875513;75;26775;-90
2022/10/13 01:53:47;;;;;;;0.30;0.30;;;;;;;;;;1873391;75;26220;-88
2022/10/13 01:56:14;;;;;;;0.40;0.40;;;;;;;;;;1884097;75;26252;-89
2022/10/13 01:58:41;;;;;;;0.30;0.30;;;;;;;;;;1899966;73;26401;-90
2022/10/13 02:01:19;;;;;;;0.37;0.37;;;;;;;;;;1924625;73;26205;-87
2022/10/13 02:03:54;;;;;;;0.40;0.40;;;;;;;;;;1926612;73;26671;-88
2022/10/13 02:06:23;;;;;;;0.30;0.30;;;;;;;;;;1929340;73;26608;-90
2022/10/13 02:08:55;;;;;;;0.30;0.30;;;;;;;;;;1927228;73;26240;-95
2022/10/13 02:11:22;;;;;;;0.17;0.17;;;;;;;;;;1916116;73;26289;-88
2022/10/13 02:14:00;;;;;;;0.25;0.25;;;;;;;;;;1916343;73;26219;-89
2022/10/13 02:16:29;;;;;;;0.30;0.30;;;;;;;;;;1926202;73;26254;-88
2022/10/13 02:18:57;;;;;;;0.30;0.30;;;;;;;;;;1930544;73;26245;-89
2022/10/13 02:21:25;;;;;;;0.65;0.37;;;;;;;;;;1929231;73;26214;-89
2022/10/13 02:23:52;;;;;;;0.25;0.25;;;;;;;;;;1930292;73;26312;-87
2022/10/13 02:26:20;;;;;;;0.42;0.42;;;;;;;;;;1913843;73;26277;-90
2022/10/13 02:28:47;;;;;;;1.85;0.30;;;;;;;;;;1930804;73;26221;-88
2022/10/13 02:31:15;;;;;;;0.40;0.40;;;;;;;;;;1918198;73;26360;-88
2022/10/13 02:33:42;;;;;;;1.17;0.40;;;;;;;;;;1920338;73;26712;-89
2022/10/13 02:36:09;;;;;;;0.20;0.20;;;;;;;;;;1938026;73;26649;-89
2022/10/13 02:38:36;;;;;;;0.30;0.30;;;;;;;;;;1917938;73;26214;-89
2022/10/13 02:41:04;;;;;;;0.30;0.30;;;;;;;;;;1923547;73;26245;-90
2022/10/13 02:43:32;;;;;;;0.30;0.30;;;;;;;;;;1913241;73;26238;-90
2022/10/13 02:46:00;;;;;;;0.20;0.20;;;;;;;;;;1918123;73;26302;-90
2022/10/13 02:48:27;;;;;;;0.30;0.30;;;;;;;;;;1917073;73;26242;-88
2022/10/13 02:50:54;;;;;;;0.30;0.30;;;;;;;;;;1931763;73;26270;-88
2022/10/13 02:53:21;;;;;;;0.50;0.50;;;;;;;;;;1912383;73;26285;-90
2022/10/13 02:55:49;;;;;;;0.20;0.20;;;;;;;;;;1907469;73;26706;-89
2022/10/13 02:58:16;;;;;;;0.20;0.20;;;;;;;;;;1921054;73;26771;-89
2022/10/13 03:00:43;;;;;;;0.40;0.40;;;;;;;;;;1901378;73;26906;-89
2022/10/13 03:03:11;;;;;;;0.35;0.35;;;;;;;;;;1899229;75;26361;-89
2022/10/13 03:05:38;;;;;;;0.42;0.42;;;;;;;;;;1903118;74;26759;-89
2022/10/13 03:08:05;;;;;;;0.40;0.40;;;;;;;;;;1907482;75;26210;-90
2022/10/13 03:10:33;;;;;;;0.20;0.20;;;;;;;;;;1895367;75;26317;-86
2022/10/13 03:13:00;;;;;;;0.30;0.30;;;;;;;;;;1888735;75;26788;-88
2022/10/13 03:15:27;;;;;;;0.30;0.30;;;;;;;;;;1887266;74;26216;-90
2022/10/13 03:17:54;;;;;;;0.20;0.20;;;;;;;;;;1884242;75;26207;-92
2022/10/13 03:20:22;;;;;;;0.30;0.30;;;;;;;;;;1884639;75;26810;-90
2022/10/13 03:22:49;;;;;;;0.30;0.30;;;;;;;;;;1882724;75;26746;-89
2022/10/13 03:25:16;;;;;;;0.20;0.20;;;;;;;;;;1871357;76;26234;-89
2022/10/13 03:27:44;;;;;;;0.33;0.33;;;;;;;;;;1869295;75;26254;-88
2022/10/13 03:30:11;;;;;;;0.40;0.40;;;;;;;;;;1909285;75;26308;-89
2022/10/13 03:32:39;;;;;;;0.20;0.20;;;;;;;;;;1875121;75;26481;-89
2022/10/13 03:35:07;;;;;;;0.35;0.35;;;;;;;;;;1865712;76;26268;-88
2022/10/13 03:37:34;;;;;;;0.30;0.30;;;;;;;;;;1876062;75;26339;-89
2022/10/13 03:40:01;;;;;;;0.20;0.20;;;;;;;;;;1895666;75;26249;-89
2022/10/13 03:42:29;;;;;;;0.20;0.20;;;;;;;;;;1907376;75;26246;-88
2022/10/13 03:44:56;;;;;;;0.20;0.20;;;;;;;;;;1902813;75;26191;-89
2022/10/13 03:47:23;;;;;;;0.30;0.30;;;;;;;;;;1893267;75;26249;-92
2022/10/13 03:49:53;;;;;;;0.30;0.30;;;;;;;;;;1904828;75;26216;-91
2022/10/13 03:52:19;;;;;;;0.37;0.37;;;;;;;;;;1911706;75;26754;-90
2022/10/13 03:54:47;;;;;;;0.17;0.17;;;;;;;;;;1893466;75;26292;-90
2022/10/13 03:57:14;;;;;;;0.30;0.30;;;;;;;;;;1864448;75;26250;-90
2022/10/13 03:59:41;;;;;;;0.25;0.25;;;;;;;;;;1884958;75;26372;-90
2022/10/13 04:02:08;;;;;;;0.25;0.25;;;;;;;;;;1915199;73;26312;-90
2022/10/13 04:04:37;;;;;;;0.20;0.20;;;;;;;;;;1916001;75;26387;-88
2022/10/13 04:07:04;;;;;;;0.20;0.20;;;;;;;;;;1899131;75;26270;-92
2022/10/13 04:09:32;;;;;;;0.30;0.30;;;;;;;;;;1912672;73;26288;-88
2022/10/13 04:11:59;;;;;;;0.30;0.30;;;;;;;;;;1941604;73;26301;-88
2022/10/13 04:14:27;;;;;;;0.30;0.30;;;;;;;;;;1907886;75;26508;-90
2022/10/13 04:16:54;;;;;;;0.25;0.25;;;;;;;;;;1908839;74;26261;-90
2022/10/13 04:19:21;;;;;;;0.37;0.37;;;;;;;;;;1910871;73;26563;-90
2022/10/13 04:21:48;;;;;;;0.28;0.28;;;;;;;;;;1907918;73;26766;-90
2022/10/13 04:24:16;;;;;;;0.30;0.30;;;;;;;;;;1915256;74;26868;-88
2022/10/13 04:26:45;;;;;;;0.37;0.37;;;;;;;;;;1902246;75;26231;-89
2022/10/13 04:29:12;;;;;;;0.30;0.30;;;;;;;;;;1912960;73;26446;-90
2022/10/13 04:31:42;;;;;;;0.25;0.25;;;;;;;;;;1916034;73;26785;-89
2022/10/13 04:34:09;;;;;;;0.28;0.28;;;;;;;;;;1932597;73;26958;-91
2022/10/13 04:36:36;;;;;;;0.28;0.28;;;;;;;;;;1915586;73;26250;-88
2022/10/13 04:39:04;;;;;;;0.40;0.40;;;;;;;;;;1915151;73;26251;-90
2022/10/13 04:41:31;;;;;;;0.30;0.30;;;;;;;;;;1914190;74;26675;-89
2022/10/13 04:44:01;;;;;;;0.20;0.20;;;;;;;;;;1912461;73;26307;-88
2022/10/13 04:46:28;;;;;;;0.25;0.25;;;;;;;;;;1904944;74;26291;-85
2022/10/13 04:48:55;;;;;;;0.25;0.25;;;;;;;;;;1918088;73;26236;-86
2022/10/13 04:51:23;;;;;;;0.53;0.40;;;;;;;;;;1923267;73;26224;-88
2022/10/13 04:53:55;;;;;;;0.40;0.40;;;;;;;;;;1919211;73;26238;-85
2022/10/13 04:56:22;;;;;;;0.45;0.45;;;;;;;;;;1914464;73;26289;-86
2022/10/13 04:58:49;;;;;;;0.35;0.35;;;;;;;;;;1923992;73;27098;-87
2022/10/13 05:01:18;;;;;;;0.88;0.33;;;;;;;;;;1921359;73;26229;-89
2022/10/13 05:03:46;;;;;;;0.35;0.35;;;;;;;;;;1890023;74;26258;-87
2022/10/13 05:06:14;;;;;;;0.20;0.20;;;;;;;;;;1910310;74;26241;-87
2022/10/13 05:08:41;;;;;;;0.30;0.30;;;;;;;;;;1905330;75;26344;-86
2022/10/13 05:11:09;;;;;;;0.30;0.30;;;;;;;;;;1908075;75;26286;-89
2022/10/13 05:13:36;;;;;;;0.35;0.35;;;;;;;;;;1902049;74;26791;-89
2022/10/13 05:16:07;;;;;;;0.75;0.30;;;;;;;;;;1882172;75;26309;-92
2022/10/13 05:18:34;;;;;;;0.40;0.40;;;;;;;;;;1902841;75;26254;-88
2022/10/13 05:21:15;;;;;;;0.42;0.42;;;;;;;;;;1913436;74;26284;-87
2022/10/13 05:23:44;;;;;;;0.80;0.45;;;;;;;;;;1893473;74;26234;-87
2022/10/13 05:26:13;;;;;;;1.72;0.50;;;;;;;;;;1900790;74;26253;-88
2022/10/13 05:28:40;;;;;;;0.57;0.47;;;;;;;;;;1903133;75;26859;-89
2022/10/13 05:31:31;;;;;;;0.50;0.50;;;;;;;;;;1902222;75;26259;-87
2022/10/13 05:33:59;;;;;;;0.68;0.40;;;;;;;;;;1878925;75;27402;-88
2022/10/13 05:36:29;;;;;;;0.50;0.50;;;;;;;;;;1908095;75;26548;-88
2022/10/13 05:38:58;;;;;;;0.50;0.50;;;;;;;;;;1879189;75;26803;-88
2022/10/13 05:41:26;;;;;;;0.47;0.47;;;;;;;;;;1900336;75;26553;-87
2022/10/13 05:43:56;;;;;;;1.15;0.75;;;;;;;;;;1905159;73;26695;-89
2022/10/13 05:46:23;;;;;;;2.27;0.70;;;;;;;;;;1905468;75;26316;-89
2022/10/13 05:48:51;;;;;;;2.50;0.80;;;;;;;;;;1904624;74;26258;-90
2022/10/13 05:51:25;;;;;;;0.70;0.70;;;;;;;;;;1904708;75;26320;-92
2022/10/13 05:53:57;;;;;;;0.53;0.53;;;;;;;;;;1898014;75;26305;-92
2022/10/13 05:56:25;;;;;;;2.85;0.70;;;;;;;;;;1903514;75;26235;-89
2022/10/13 05:58:54;;;;;;;2.10;0.70;;;;;;;;;;1907314;75;26320;-89
2022/10/13 06:01:23;;;;;;;2.02;0.60;;;;;;;;;;1908908;75;26226;-89
2022/10/13 06:03:52;;;;;;;1.62;1.00;;;;;;;;;;1919903;73;26329;-90
2022/10/13 06:06:20;;;;;;;0.82;0.70;;;;;;;;;;1909582;74;26297;-90
2022/10/13 06:08:47;;;;;;;1.62;0.65;;;;;;;;;;1914837;74;26273;-90
2022/10/13 06:11:14;;;;;;;0.53;0.50;;;;;;;;;;1919989;74;26254;-90
2022/10/13 06:13:41;;;;;;;1.95;0.60;;;;;;;;;;1913730;74;26210;-90
2022/10/13 06:16:09;;;;;;;0.68;0.65;;;;;;;;;;1924138;74;26896;-89
2022/10/13 06:18:36;;;;;;;0.60;0.60;;;;;;;;;;1926149;73;26771;-89
2022/10/13 06:21:03;;;;;;;1.17;0.70;;;;;;;;;;1910274;74;26367;-89
2022/10/13 06:23:30;;;;;;;1.32;0.50;;;;;;;;;;1919718;74;26284;-88
2022/10/13 06:25:58;;;;;;;0.68;0.50;;;;;;;;;;1917344;74;26275;-88
2022/10/13 06:28:26;;;;;;;1.00;0.80;;;;;;;;;;1916902;74;26359;-88
2022/10/13 06:30:55;;;;;;;1.20;0.57;;;;;;;;;;1915158;73;26295;-87
2022/10/13 06:33:23;;;;;;;0.70;0.40;;;;;;;;;;1919930;74;26227;-90
2022/10/13 06:35:52;;;;;;;1.27;0.70;;;;;;;;;;1918640;74;26232;-89
2022/10/13 06:38:19;;;;;;;0.60;0.60;;;;;;;;;;1923174;74;27997;-89
2022/10/13 06:40:47;;;;;;;0.50;0.50;;;;;;;;;;1919025;74;26281;-87
2022/10/13 06:43:14;;;;;;;0.60;0.60;;;;;;;;;;1908825;74;26296;-88
2022/10/13 06:45:41;;;;;;;1.00;0.72;;;;;;;;;;1900410;74;26351;-88
2022/10/13 06:48:09;;;;;;;0.65;0.65;;;;;;;;;;1899593;75;26258;-90
2022/10/13 06:50:36;;;;;;;0.75;0.70;;;;;;;;;;1890416;75;26283;-89
2022/10/13 06:53:04;;;;;;;0.62;0.62;;;;;;;;;;1899720;74;26301;-89
2022/10/13 06:55:31;;;;;;;1.60;0.60;;;;;;;;;;1920608;74;26293;-89
2022/10/13 06:57:58;;;;;;;0.57;0.57;;;;;;;;;;1908510;74;26202;-88
2022/10/13 07:00:26;;;;;;;0.70;0.70;;;;;;;;;;1917673;74;26278;-89
2022/10/13 07:02:53;;;;;;;0.40;0.40;;;;;;;;;;1914155;74;26894;-87
2022/10/13 07:05:20;;;;;;;1.65;0.72;;;;;;;;;;1902921;74;26263;-90
2022/10/13 07:07:47;;;;;;;0.70;0.70;;;;;;;;;;1866784;76;26270;-88
2022/10/13 07:10:15;;;;;;;0.70;0.70;;;;;;;;;;1857879;77;26383;-89
2022/10/13 07:12:42;;;;;;;0.60;0.60;;;;;;;;;;1854725;76;26319;-88
2022/10/13 07:15:09;;;;;;;0.65;0.60;;;;;;;;;;1873849;76;26242;-87
2022/10/13 07:17:37;;;;;;;0.60;0.60;;;;;;;;;;1877100;75;26851;-88
2022/10/13 07:20:05;;;;;;;0.70;0.70;;;;;;;;;;1875805;76;26350;-88
2022/10/13 07:22:32;;;;;;;0.70;0.70;;;;;;;;;;1869647;76;26305;-88
2022/10/13 07:24:59;;;;;;;0.60;0.60;;;;;;;;;;1871830;76;26244;-88
2022/10/13 07:27:27;;;;;;;0.50;0.50;;;;;;;;;;1864174;75;26290;-88
2022/10/13 07:29:54;;;;;;;0.70;0.70;;;;;;;;;;1866826;76;26468;-88
2022/10/13 07:32:21;;;;;;;0.60;0.60;;;;;;;;;;1853052;76;26275;-88
2022/10/13 07:34:50;;;;;;;0.60;0.60;;;;;;;;;;1876501;76;26232;-88
2022/10/13 07:37:18;;;;;;;0.62;0.62;;;;;;;;;;1876235;76;26255;-88
2022/10/13 07:39:45;;;;;;;0.42;0.42;;;;;;;;;;1888430;75;26320;-88
2022/10/13 07:42:13;;;;;;;0.60;0.60;;;;;;;;;;1842927;78;26345;-86
2022/10/13 07:44:40;;;;;;;0.50;0.50;;;;;;;;;;1856089;76;26640;-84
2022/10/13 07:47:07;;;;;;;0.57;0.57;;;;;;;;;;1870960;76;26273;-88
2022/10/13 07:49:35;;;;;;;0.50;0.50;;;;;;;;;;1858695;75;26317;-87
2022/10/13 07:52:02;;;;;;;0.75;0.60;;;;;;;;;;1863851;76;26299;-85
2022/10/13 07:54:29;;;;;;;0.50;0.50;;;;;;;;;;1849960;76;26303;-85
2022/10/13 07:56:57;;;;;;;0.62;0.62;;;;;;;;;;1873706;76;26216;-87
2022/10/13 07:59:24;;;;;;;0.70;0.70;;;;;;;;;;1874296;75;26312;-90
2022/10/13 08:01:52;;;;;;;0.68;0.50;;;;;;;;;;1870597;76;26247;-86
2022/10/13 08:04:19;;;;;;;0.60;0.60;;;;;;;;;;1867027;75;26254;-89
2022/10/13 08:06:46;;;;;;;0.53;0.53;;;;;;;;;;1869335;77;27070;-92
2022/10/13 08:09:13;;;;;;;0.50;0.50;;;;;;;;;;1872411;76;27214;-88
2022/10/13 08:11:41;;;;;;;0.60;0.60;;;;;;;;;;1861659;76;26246;-90
2022/10/13 08:14:09;;;;;;;0.62;0.60;;;;;;;;;;1873275;76;26888;-89
2022/10/13 08:16:38;;;;;;;0.60;0.60;;;;;;;;;;1874612;76;26262;-90
2022/10/13 08:19:07;;;;;;;0.65;0.65;;;;;;;;;;1876243;76;26249;-90
2022/10/13 08:21:35;;;;;;;0.50;0.50;;;;;;;;;;1875845;76;26400;-88
2022/10/13 08:24:03;;;;;;;0.62;0.53;;;;;;;;;;1872640;76;26832;-88
2022/10/13 08:26:31;;;;;;;1.40;0.53;;;;;;;;;;1847919;76;26302;-89
2022/10/13 08:29:12;;;;;;;14.10;0.70;;;;;;;;;;1870415;76;26254;-87
2022/10/13 08:31:39;;;;;;;0.90;0.47;;;;;;;;;;1873420;75;26294;-90
2022/10/13 08:34:06;;;;;;;0.50;0.50;;;;;;;;;;1856604;76;26290;-90
2022/10/13 08:36:33;;;;;;;0.40;0.40;;;;;;;;;;1870619;76;26912;-89
2022/10/13 08:39:01;;;;;;;1.07;0.60;;;;;;;;;;1871555;76;26705;-90
2022/10/13 08:41:30;;;;;;;2.70;0.50;;;;;;;;;;1871946;76;26287;-92
2022/10/13 08:43:58;;;;;;;2.10;0.70;;;;;;;;;;1875472;76;26266;-89
2022/10/13 08:46:27;;;;;;;0.40;0.40;;;;;;;;;;1873926;75;26351;-87
2022/10/13 08:48:55;;;;;;;0.60;0.60;;;;;;;;;;1877210;75;26817;-87
2022/10/13 08:51:22;;;;;;;0.42;0.42;;;;;;;;;;1868269;75;26311;-90
2022/10/13 08:53:50;;;;;;;0.60;0.60;;;;;;;;;;1873372;76;26238;-89
2022/10/13 08:56:19;;;;;;;0.50;0.50;;;;;;;;;;1875844;76;26293;-89
2022/10/13 08:58:47;;;;;;;0.40;0.40;;;;;;;;;;1874280;76;26319;-89
2022/10/13 09:01:16;;;;;;;0.60;0.60;;;;;;;;;;1874394;75;26972;-92
2022/10/13 09:03:57;;;;;;;0.70;0.70;;;;;;;;;;1858909;76;26598;-86
2022/10/13 09:06:30;;;;;;;0.40;0.40;;;;;;;;;;1852145;76;26265;-87
2022/10/13 09:08:58;;;;;;;0.50;0.50;;;;;;;;;;1875133;76;26870;-88
2022/10/13 09:11:37;;;;;;;0.40;0.40;;;;;;;;;;1846402;76;26277;-87
2022/10/13 09:14:06;;;;;;;1.45;0.50;;;;;;;;;;1838591;77;26316;-87
2022/10/13 09:16:34;;;;;;;0.50;0.50;;;;;;;;;;1869679;75;26323;-89
2022/10/13 09:19:03;;;;;;;0.42;0.42;;;;;;;;;;1850629;76;26271;-89
2022/10/13 09:21:30;;;;;;;0.50;0.50;;;;;;;;;;1843057;76;26444;-88
2022/10/13 09:23:59;;;;;;;0.40;0.40;;;;;;;;;;1849183;77;26248;-87
2022/10/13 09:26:26;;;;;;;1.52;0.50;;;;;;;;;;1882675;75;26308;-88
2022/10/13 09:28:54;;;;;;;0.50;0.50;;;;;;;;;;1883783;74;26363;-85
2022/10/13 09:31:23;;;;;;;0.60;0.60;;;;;;;;;;1884719;75;26373;-90
2022/10/13 09:33:58;;;;;;;0.50;0.50;;;;;;;;;;1870511;76;26789;-88
2022/10/13 09:36:25;;;;;;;0.60;0.60;;;;;;;;;;1885775;74;26190;-88
2022/10/13 09:39:03;;;;;;;0.50;0.50;;;;;;;;;;1877435;75;26267;-88
2022/10/13 09:41:31;;;;;;;0.50;0.50;;;;;;;;;;1860071;75;27402;-89
2022/10/13 09:44:00;;;;;;;0.60;0.60;;;;;;;;;;1854907;76;26274;-89
2022/10/13 09:46:29;;;;;;;0.95;0.60;;;;;;;;;;1877388;75;26258;-89
2022/10/13 09:48:58;;;;;;;0.40;0.40;;;;;;;;;;1842851;77;26822;-88
2022/10/13 09:51:33;;;;;;;0.50;0.50;;;;;;;;;;1853603;76;26750;-86
2022/10/13 09:54:00;;;;;;;0.50;0.50;;;;;;;;;;1852821;75;26298;-88
2022/10/13 09:56:32;;;;;;;1.20;0.53;;;;;;;;;;1841521;76;26276;-87
2022/10/13 09:59:03;;;;;;;0.50;0.50;;;;;;;;;;1867715;77;26223;-87
2022/10/13 10:01:32;;;;;;;0.60;0.60;;;;;;;;;;1853353;76;26248;-88
2022/10/13 10:04:01;;;;;;;0.50;0.50;;;;;;;;;;1867766;75;26271;-88
2022/10/13 10:06:28;;;;;;;0.47;0.47;;;;;;;;;;1867842;77;26602;-89
2022/10/13 10:08:57;;;;;;;0.60;0.60;;;;;;;;;;1863377;77;26293;-88
2022/10/13 10:11:29;;;;;;;0.60;0.60;;;;;;;;;;1867668;77;26348;-88
2022/10/13 10:13:57;;;;;;;0.60;0.60;;;;;;;;;;1866505;77;26337;-90
2022/10/13 10:16:34;;;;;;;0.47;0.47;;;;;;;;;;1866623;75;26521;-89
2022/10/13 10:19:09;;;;;;;0.50;0.50;;;;;;;;;;1854127;77;26372;-88
2022/10/13 10:21:38;;;;;;;3.20;0.50;;;;;;;;;;1872995;75;26352;-88
2022/10/13 10:24:06;;;;;;;0.42;0.42;;;;;;;;;;1889611;75;26319;-88
2022/10/13 10:26:41;;;;;;;0.55;0.55;;;;;;;;;;1868816;77;26297;-88
2022/10/13 10:29:14;;;;;;;1.62;0.60;;;;;;;;;;1872109;76;26352;-87
2022/10/13 10:31:52;;;;;;;0.50;0.50;;;;;;;;;;1874574;75;26360;-87
2022/10/13 10:34:27;;;;;;;0.50;0.50;;;;;;;;;;1861456;76;26286;-89
2022/10/13 10:37:13;;;;;;;0.60;0.60;;;;;;;;;;1860512;76;28216;-88
2022/10/13 10:39:53;;;;;;;0.60;0.60;;;;;;;;;;1863347;77;26249;-91
2022/10/13 10:42:34;;;;;;;0.60;0.60;;;;;;;;;;1864959;77;26343;-91
2022/10/13 10:45:03;;;;;;;0.60;0.60;;;;;;;;;;1861293;76;26257;-91
2022/10/13 10:47:32;;;;;;;0.50;0.50;;;;;;;;;;1856170;77;26234;-91
2022/10/13 10:50:04;;;;;;;0.50;0.50;;;;;;;;;;1864718;75;26311;-90
2022/10/13 10:52:48;;;;;;;0.57;0.57;;;;;;;;;;1863819;75;27630;-90
2022/10/13 10:55:29;;;;;;;1.85;0.50;;;;;;;;;;1862247;77;26238;-89
2022/10/13 10:58:04;;;;;;;1.65;0.60;;;;;;;;;;1857242;75;26801;-92
2022/10/13 11:00:32;;;;;;;1.22;0.50;;;;;;;;;;1866464;77;26266;-89
2022/10/13 11:03:10;;;;;;;0.95;0.50;;;;;;;;;;1870915;77;26344;-89
2022/10/13 11:05:55;;;;;;;0.50;0.50;;;;;;;;;;1889811;75;26320;-90
2022/10/13 11:08:26;;;;;;;0.50;0.50;;;;;;;;;;1853026;77;26265;-91
2022/10/13 11:11:11;;;;;;;0.47;0.47;;;;;;;;;;1869853;77;26362;-89
2022/10/13 11:13:40;;;;;;;0.53;0.53;;;;;;;;;;1869739;77;26251;-90
2022/10/13 11:16:21;;;;;;;0.60;0.60;;;;;;;;;;1862276;75;26268;-92
2022/10/13 11:18:58;;;;;;;0.45;0.45;;;;;;;;;;1823100;75;26280;-89
2022/10/13 11:21:25;;;;;;;0.40;0.40;;;;;;;;;;1871416;75;26305;-92
2022/10/13 11:23:52;;;;;;;0.40;0.40;;;;;;;;;;1868981;75;26261;-91
2022/10/13 11:26:21;;;;;;;0.50;0.50;;;;;;;;;;1869689;75;26785;-92
2022/10/13 11:28:48;;;;;;;0.50;0.50;;;;;;;;;;1868916;76;26903;-91
2022/10/13 11:31:17;;;;;;;0.50;0.50;;;;;;;;;;1873844;75;26377;-89
2022/10/13 11:33:47;;;;;;;0.40;0.40;;;;;;;;;;1881922;75;26301;-92
2022/10/13 11:36:34;;;;;;;0.40;0.40;;;;;;;;;;1868825;76;26273;-90
2022/10/13 11:39:02;;;;;;;2.15;0.47;;;;;;;;;;1871607;77;26348;-88
2022/10/13 11:41:31;;;;;;;0.50;0.50;;;;;;;;;;1870645;77;26268;-91
2022/10/13 11:44:00;;;;;;;0.50;0.50;;;;;;;;;;1870757;77;26255;-89
2022/10/13 11:46:35;;;;;;;0.55;0.55;;;;;;;;;;1871261;77;26345;-90
2022/10/13 11:49:07;;;;;;;0.50;0.50;;;;;;;;;;1868456;77;26227;-92
2022/10/13 11:51:38;;;;;;;0.40;0.40;;;;;;;;;;1871241;77;26345;-91
2022/10/13 11:54:13;;;;;;;0.40;0.40;;;;;;;;;;1871819;77;26301;-89
2022/10/13 12:00:14;;;;;;;0.60;0.60;;;;;;;;;;1872482;76;26270;-91
2022/10/13 12:02:52;;;;;;;0.40;0.40;;;;;;;;;;1872010;77;26360;-90
2022/10/13 12:05:21;;;;;;;0.60;0.60;;;;;;;;;;1883302;75;26368;-89
2022/10/13 12:07:49;;;;;;;0.60;0.60;;;;;;;;;;1877129;75;26233;-89
2022/10/13 12:10:17;;;;;;;0.47;0.47;;;;;;;;;;1883957;75;26216;-88
2022/10/13 12:12:46;;;;;;;0.40;0.40;;;;;;;;;;1885370;74;26325;-89
2022/10/13 12:15:24;;;;;;;1.30;0.40;;;;;;;;;;1886234;75;26288;-91
2022/10/13 12:17:51;;;;;;;0.90;0.45;;;;;;;;;;1903147;74;26346;-91
2022/10/13 12:20:20;;;;;;;0.50;0.50;;;;;;;;;;1889474;75;26176;-91
2022/10/13 12:22:49;;;;;;;0.60;0.60;;;;;;;;;;1901239;75;27157;-91
2022/10/13 12:25:17;;;;;;;0.50;0.50;;;;;;;;;;1894816;75;26767;-92
2022/10/13 12:27:46;;;;;;;0.53;0.53;;;;;;;;;;1894785;75;26808;-94
2022/10/13 12:30:24;;;;;;;0.37;0.37;;;;;;;;;;1888963;75;26303;-92
2022/10/13 12:32:52;;;;;;;0.50;0.50;;;;;;;;;;1905866;75;26689;-92
2022/10/13 12:35:21;;;;;;;0.50;0.50;;;;;;;;;;1894612;74;27109;-90
2022/10/13 12:37:49;;;;;;;0.50;0.50;;;;;;;;;;1900271;75;26732;-88
2022/10/13 12:40:16;;;;;;;1.37;0.47;;;;;;;;;;1897124;75;26240;-89
2022/10/13 12:42:45;;;;;;;0.40;0.40;;;;;;;;;;1906139;75;26328;-89
2022/10/13 12:45:16;;;;;;;0.50;0.50;;;;;;;;;;1902306;75;26298;-90
2022/10/13 12:47:49;;;;;;;0.60;0.60;;;;;;;;;;1907739;75;26329;-88
2022/10/13 12:50:28;;;;;;;0.47;0.47;;;;;;;;;;1884476;75;26314;-89
2022/10/13 12:52:57;;;;;;;0.60;0.60;;;;;;;;;;1894690;75;26307;-89
2022/10/13 12:55:24;;;;;;;0.55;0.55;;;;;;;;;;1905659;75;26303;-88
2022/10/13 12:57:52;;;;;;;1.25;0.60;;;;;;;;;;1898407;75;26298;-90
2022/10/13 13:00:21;;;;;;;0.50;0.50;;;;;;;;;;1897415;75;26263;-90
2022/10/13 13:02:55;;;;;;;0.70;0.70;;;;;;;;;;1900212;75;27649;-91
2022/10/13 13:05:32;;;;;;;0.50;0.50;;;;;;;;;;1906592;74;27313;-90
2022/10/13 13:08:01;;;;;;;0.60;0.60;;;;;;;;;;1886755;75;26255;-90
2022/10/13 13:10:28;;;;;;;0.57;0.57;;;;;;;;;;1889894;75;26248;-89
2022/10/13 13:12:56;;;;;;;0.70;0.70;;;;;;;;;;1907213;75;26286;-90
2022/10/13 13:15:40;;;;;;;0.60;0.60;;;;;;;;;;1907032;75;27107;-87
2022/10/13 13:18:25;;;;;;;0.57;0.57;;;;;;;;;;1906585;75;26295;-89
2022/10/13 13:20:53;;;;;;;0.70;0.70;;;;;;;;;;1898966;75;26348;-90
2022/10/13 13:23:22;;;;;;;0.70;0.70;;;;;;;;;;1906093;75;26798;-89
2022/10/13 13:26:07;;;;;;;0.40;0.40;;;;;;;;;;1887359;75;26816;-90
2022/10/13 13:28:34;;;;;;;0.68;0.68;;;;;;;;;;1899685;75;26302;-92
2022/10/13 13:31:02;;;;;;;0.53;0.53;;;;;;;;;;1894378;75;26279;-90
2022/10/13 13:33:29;;;;;;;0.57;0.57;;;;;;;;;;1906158;75;26317;-90
2022/10/13 13:35:56;;;;;;;0.60;0.60;;;;;;;;;;1906289;75;26226;-91
2022/10/13 13:38:24;;;;;;;0.50;0.50;;;;;;;;;;1905599;75;26268;-91
2022/10/13 13:40:51;;;;;;;0.60;0.60;;;;;;;;;;1905083;75;26215;-90
2022/10/13 13:43:18;;;;;;;0.50;0.50;;;;;;;;;;1906067;75;26326;-90
2022/10/13 13:45:45;;;;;;;0.62;0.60;;;;;;;;;;1899303;75;26361;-91
2022/10/13 13:48:13;;;;;;;0.68;0.68;;;;;;;;;;1895457;75;26268;-91
2022/10/13 13:50:40;;;;;;;0.70;0.70;;;;;;;;;;1905321;75;26322;-90
2022/10/13 13:53:07;;;;;;;0.50;0.50;;;;;;;;;;1903089;75;26187;-90
2022/10/13 13:55:35;;;;;;;0.50;0.50;;;;;;;;;;1895697;75;28170;-90
2022/10/13 13:58:02;;;;;;;0.50;0.50;;;;;;;;;;1887739;75;26294;-90
2022/10/13 14:00:29;;;;;;;1.30;0.60;;;;;;;;;;1896305;75;26536;-89
2022/10/13 14:02:57;;;;;;;0.65;0.50;;;;;;;;;;1898216;75;26310;-89
2022/10/13 14:05:36;;;;;;;0.68;0.68;;;;;;;;;;1906080;75;26275;-89
2022/10/13 14:08:03;;;;;;;1.85;0.60;;;;;;;;;;1894702;75;26228;-89
2022/10/13 14:10:30;;;;;;;0.62;0.62;;;;;;;;;;1905109;75;26885;-89
2022/10/13 14:12:57;;;;;;;0.55;0.55;;;;;;;;;;1892203;75;26360;-88
2022/10/13 14:15:27;;;;;;;0.80;0.80;;;;;;;;;;1900595;75;26276;-89
2022/10/13 14:17:54;;;;;;;1.30;0.55;;;;;;;;;;1906161;75;26292;-88
2022/10/13 14:20:21;;;;;;;1.75;0.60;;;;;;;;;;1905868;75;26520;-88
2022/10/13 14:22:49;;;;;;;2.35;0.80;;;;;;;;;;1905854;75;26236;-87
2022/10/13 14:25:16;;;;;;;2.37;0.60;;;;;;;;;;1905930;75;26235;-89
2022/10/13 14:27:44;;;;;;;0.70;0.70;;;;;;;;;;1904760;75;26829;-88
2022/10/13 14:30:12;;;;;;;0.60;0.60;;;;;;;;;;1904209;75;26346;-87
2022/10/13 14:32:39;;;;;;;1.17;0.60;;;;;;;;;;1904359;75;26251;-88
2022/10/13 14:35:07;;;;;;;0.60;0.60;;;;;;;;;;1904613;75;26189;-90
2022/10/13 14:37:37;;;;;;;0.50;0.50;;;;;;;;;;1904829;75;26727;-87
2022/10/13 14:40:09;;;;;;;0.53;0.53;;;;;;;;;;1864919;77;26257;-88
2022/10/13 14:42:38;;;;;;;0.60;0.60;;;;;;;;;;1865832;76;26249;-89
2022/10/13 14:45:05;;;;;;;0.65;0.65;;;;;;;;;;1866373;76;26311;-88
2022/10/13 14:47:33;;;;;;;0.60;0.60;;;;;;;;;;1878970;75;26286;-88
2022/10/13 14:50:00;;;;;;;0.60;0.57;;;;;;;;;;1904546;75;26239;-88
2022/10/13 14:52:27;;;;;;;0.60;0.60;;;;;;;;;;1904706;75;26330;-88
2022/10/13 14:54:55;;;;;;;0.88;0.62;;;;;;;;;;1904761;75;26337;-88
2022/10/13 14:57:22;;;;;;;0.47;0.47;;;;;;;;;;1903974;75;26238;-87
2022/10/13 14:59:51;;;;;;;0.70;0.70;;;;;;;;;;1904167;75;26246;-88